createdAt,value
2023-07-19T00:00:43.070Z,19.38
2023-07-19T00:03:09.919Z,18.72
2023-07-19T00:05:36.743Z,22.63
2023-07-19T00:08:05.551Z,23.26
2023-07-19T00:10:32.971Z,21.89
2023-07-19T00:12:59.638Z,23.29
2023-07-19T00:15:26.470Z,23.48
2023-07-19T00:17:53.160Z,23.31
2023-07-19T00:20:20.386Z,23.44
2023-07-19T00:22:47.424Z,23.56
2023-07-19T00:25:15.596Z,23.43
2023-07-19T00:27:42.212Z,20.78
2023-07-19T00:30:09.815Z,21.07
2023-07-19T00:32:36.464Z,22.54
2023-07-19T00:35:03.422Z,23.28
2023-07-19T00:37:30.115Z,20.57
2023-07-19T00:39:56.843Z,22.74
2023-07-19T00:42:24.828Z,22.83
2023-07-19T00:44:51.860Z,23.30
2023-07-19T00:47:18.503Z,23.36
2023-07-19T00:49:45.439Z,23.40
2023-07-19T00:52:12.966Z,23.41
2023-07-19T00:54:40.478Z,23.39
2023-07-19T00:57:09.083Z,23.43
2023-07-19T00:59:37.973Z,23.40
2023-07-19T01:02:05.698Z,23.40
2023-07-19T01:04:32.656Z,22.41
2023-07-19T01:06:59.418Z,22.60
2023-07-19T01:09:27.636Z,20.26
2023-07-19T01:11:54.285Z,20.57
2023-07-19T01:14:20.970Z,21.48
2023-07-19T01:16:48.951Z,22.47
2023-07-19T01:19:17.264Z,22.38
2023-07-19T01:21:43.982Z,23.08
2023-07-19T01:24:12.075Z,23.19
2023-07-19T01:26:38.731Z,23.21
2023-07-19T01:29:05.331Z,23.23
2023-07-19T01:31:32.000Z,23.15
2023-07-19T01:33:58.634Z,22.54
2023-07-19T01:36:27.110Z,23.19
2023-07-19T01:38:53.775Z,23.16
2023-07-19T01:41:22.240Z,22.23
2023-07-19T01:43:49.142Z,22.58
2023-07-19T01:46:15.795Z,22.96
2023-07-19T01:48:42.553Z,23.03
2023-07-19T01:51:09.175Z,23.08
2023-07-19T01:53:35.951Z,18.93
2023-07-19T01:56:02.712Z,22.39
2023-07-19T01:58:30.827Z,22.00
2023-07-19T02:00:57.501Z,21.55
2023-07-19T02:03:24.228Z,21.41
2023-07-19T02:05:58.416Z,22.52
2023-07-19T02:08:25.355Z,22.81
2023-07-19T02:10:52.053Z,22.37
2023-07-19T02:13:18.789Z,22.77
2023-07-19T02:15:47.556Z,22.87
2023-07-19T02:18:14.519Z,22.90
2023-07-19T02:20:45.431Z,22.88
2023-07-19T02:23:13.049Z,20.14
2023-07-19T02:25:41.627Z,22.19
2023-07-19T02:28:08.479Z,22.76
2023-07-19T02:30:35.130Z,22.79
2023-07-19T02:33:03.127Z,22.77
2023-07-19T02:35:29.819Z,22.84
2023-07-19T02:37:56.506Z,22.86
2023-07-19T02:40:23.160Z,22.86
2023-07-19T02:42:49.818Z,22.83
2023-07-19T02:45:16.651Z,22.88
2023-07-19T02:47:43.290Z,22.88
2023-07-19T02:50:11.960Z,22.88
2023-07-19T02:52:38.618Z,22.86
2023-07-19T02:55:06.028Z,21.19
2023-07-19T02:57:32.761Z,21.48
2023-07-19T02:59:59.506Z,22.58
2023-07-19T03:02:26.161Z,22.75
2023-07-19T03:04:52.906Z,22.79
2023-07-19T03:07:21.210Z,21.96
2023-07-19T03:09:47.838Z,22.66
2023-07-19T03:12:14.475Z,22.75
2023-07-19T03:14:41.098Z,22.80
2023-07-19T03:17:08.046Z,22.36
2023-07-19T03:19:36.461Z,22.56
2023-07-19T03:22:03.353Z,22.73
2023-07-19T03:24:31.437Z,20.47
2023-07-19T03:26:58.341Z,21.92
2023-07-19T03:29:25.023Z,22.11
2023-07-19T03:31:51.838Z,22.25
2023-07-19T03:34:18.440Z,21.06
2023-07-19T03:36:45.085Z,22.34
2023-07-19T03:39:11.726Z,22.57
2023-07-19T03:41:39.718Z,22.62
2023-07-19T03:44:06.531Z,22.63
2023-07-19T03:46:33.456Z,22.66
2023-07-19T03:49:00.163Z,22.69
2023-07-19T03:51:27.010Z,19.59
2023-07-19T03:53:53.846Z,21.65
2023-07-19T03:56:20.567Z,22.32
2023-07-19T03:58:50.501Z,22.47
2023-07-19T04:01:17.380Z,22.55
2023-07-19T04:03:46.175Z,22.57
2023-07-19T04:06:14.098Z,22.55
2023-07-19T04:08:40.769Z,22.56
2023-07-19T04:11:07.433Z,22.60
2023-07-19T04:13:34.040Z,22.55
2023-07-19T04:16:02.057Z,22.53
2023-07-19T04:18:28.693Z,21.40
2023-07-19T04:20:56.708Z,21.52
2023-07-19T04:23:23.476Z,22.20
2023-07-19T04:25:50.530Z,22.26
2023-07-19T04:28:17.187Z,22.41
2023-07-19T04:30:47.218Z,22.27
2023-07-19T04:33:16.687Z,20.52
2023-07-19T04:35:43.465Z,20.66
2023-07-19T04:38:10.105Z,21.95
2023-07-19T04:40:36.857Z,22.23
2023-07-19T04:43:03.529Z,22.34
2023-07-19T04:45:31.246Z,22.36
2023-07-19T04:47:58.934Z,22.39
2023-07-19T04:50:26.994Z,22.41
2023-07-19T04:52:55.217Z,22.39
2023-07-19T04:55:22.172Z,22.35
2023-07-19T04:57:48.858Z,22.37
2023-07-19T05:00:19.324Z,22.22
2023-07-19T05:02:46.502Z,22.34
2023-07-19T05:05:13.746Z,20.35
2023-07-19T05:07:41.813Z,21.97
2023-07-19T05:10:09.679Z,22.22
2023-07-19T05:12:36.771Z,22.30
2023-07-19T05:15:03.959Z,22.25
2023-07-19T05:17:30.720Z,22.33
2023-07-19T05:19:57.426Z,22.35
2023-07-19T05:22:24.282Z,22.30
2023-07-19T05:24:52.476Z,22.30
2023-07-19T05:27:19.183Z,22.31
2023-07-19T05:29:45.831Z,22.34
2023-07-19T05:32:12.520Z,21.97
2023-07-19T05:34:39.566Z,21.19
2023-07-19T05:37:07.347Z,22.08
2023-07-19T05:39:34.537Z,22.03
2023-07-19T05:42:02.585Z,21.37
2023-07-19T05:44:29.275Z,20.49
2023-07-19T05:46:55.977Z,21.03
2023-07-19T05:49:22.637Z,21.15
2023-07-19T05:51:49.350Z,21.54
2023-07-19T05:54:16.756Z,21.93
2023-07-19T05:56:43.612Z,20.54
2023-07-19T05:59:12.180Z,20.97
2023-07-19T06:01:39.384Z,19.24
2023-07-19T06:04:06.942Z,21.55
2023-07-19T06:06:34.435Z,21.95
2023-07-19T06:09:02.472Z,22.00
2023-07-19T06:11:29.204Z,22.03
2023-07-19T06:13:55.870Z,22.05
2023-07-19T06:18:51.462Z,22.07
2023-07-19T06:21:18.545Z,22.07
2023-07-19T06:23:45.413Z,22.09
2023-07-19T06:26:12.078Z,22.09
2023-07-19T06:28:38.736Z,22.11
2023-07-19T06:31:05.414Z,21.33
2023-07-19T06:33:33.438Z,21.39
2023-07-19T06:36:00.252Z,21.56
2023-07-19T06:38:27.053Z,21.43
2023-07-19T06:40:53.683Z,21.76
2023-07-19T06:43:20.323Z,20.77
2023-07-19T06:45:47.360Z,20.53
2023-07-19T06:48:14.042Z,21.69
2023-07-19T06:50:42.420Z,21.05
2023-07-19T06:53:09.092Z,21.83
2023-07-19T06:55:35.719Z,22.01
2023-07-19T06:58:02.642Z,21.48
2023-07-19T07:00:29.264Z,20.48
2023-07-19T07:02:55.971Z,20.05
2023-07-19T07:05:22.720Z,21.24
2023-07-19T07:07:50.677Z,21.80
2023-07-19T07:10:17.326Z,21.93
2023-07-19T07:12:45.296Z,21.95
2023-07-19T07:15:11.944Z,21.44
2023-07-19T07:17:41.617Z,21.80
2023-07-19T07:20:09.156Z,21.95
2023-07-19T07:22:35.830Z,22.01
2023-07-19T07:25:04.486Z,21.67
2023-07-19T07:27:31.209Z,21.74
2023-07-19T07:29:59.236Z,21.94
2023-07-19T07:32:25.876Z,21.63
2023-07-19T07:34:52.620Z,21.23
2023-07-19T07:37:19.256Z,21.22
2023-07-19T07:39:45.888Z,21.86
2023-07-19T07:42:13.852Z,21.70
2023-07-19T07:44:40.489Z,21.67
2023-07-19T07:47:07.136Z,21.80
2023-07-19T07:49:34.092Z,21.56
2023-07-19T07:52:00.745Z,21.05
2023-07-19T07:54:27.617Z,21.89
2023-07-19T07:56:54.291Z,21.97
2023-07-19T07:59:22.292Z,21.99
2023-07-19T08:01:48.930Z,22.00
2023-07-19T08:04:15.589Z,22.00
2023-07-19T08:06:42.313Z,21.97
2023-07-19T08:09:08.977Z,21.98
2023-07-19T08:11:35.613Z,21.99
2023-07-19T08:14:02.325Z,21.99
2023-07-19T08:16:30.886Z,21.98
2023-07-19T08:18:57.615Z,21.97
2023-07-19T08:21:35.323Z,21.88
2023-07-19T08:24:04.331Z,21.83
2023-07-19T08:26:31.082Z,21.95
2023-07-19T08:28:57.708Z,22.01
2023-07-19T08:31:25.104Z,21.88
2023-07-19T08:33:54.625Z,21.95
2023-07-19T08:36:21.561Z,22.00
2023-07-19T08:38:48.754Z,21.98
2023-07-19T08:41:22.756Z,21.96
2023-07-19T08:43:49.965Z,22.00
2023-07-19T08:46:19.539Z,21.97
2023-07-19T08:48:50.635Z,21.97
2023-07-19T08:51:19.608Z,21.95
2023-07-19T08:53:46.463Z,21.96
2023-07-19T08:56:13.787Z,21.96
2023-07-19T08:58:40.961Z,21.95
2023-07-19T09:01:08.685Z,21.95
2023-07-19T09:03:35.600Z,22.06
2023-07-19T09:06:02.778Z,22.01
2023-07-19T09:08:37.318Z,21.96
2023-07-19T09:11:04.161Z,21.96
2023-07-19T09:13:31.693Z,21.97
2023-07-19T09:15:58.533Z,21.97
2023-07-19T09:18:31.265Z,21.97
2023-07-19T09:20:59.746Z,21.96
2023-07-19T09:23:26.378Z,21.94
2023-07-19T09:25:58.634Z,21.95
2023-07-19T09:28:25.961Z,21.93
2023-07-19T09:30:55.684Z,21.96
2023-07-19T09:33:22.392Z,21.99
2023-07-19T09:35:53.978Z,22.00
2023-07-19T09:38:21.348Z,22.01
2023-07-19T09:40:48.029Z,22.06
2023-07-19T09:43:17.020Z,22.06
2023-07-19T09:45:44.271Z,22.03
2023-07-19T09:48:11.645Z,22.02
2023-07-19T09:50:40.982Z,21.99
2023-07-19T09:53:11.647Z,22.30
2023-07-19T09:55:38.793Z,22.16
2023-07-19T09:58:08.160Z,23.18
2023-07-19T10:00:37.045Z,22.60
2023-07-19T10:03:06.224Z,22.18
2023-07-19T10:05:32.895Z,22.69
2023-07-19T10:08:04.952Z,22.37
2023-07-19T10:10:38.933Z,22.22
2023-07-19T10:13:07.214Z,22.57
2023-07-19T10:15:34.056Z,22.64
2023-07-19T10:18:02.510Z,22.46
2023-07-19T10:20:31.668Z,24.96
2023-07-19T10:23:00.285Z,24.93
2023-07-19T10:25:28.853Z,25.53
2023-07-19T10:28:03.423Z,22.66
2023-07-19T10:30:46.674Z,22.56
2023-07-19T10:33:16.490Z,23.15
2023-07-19T10:35:43.477Z,22.76
2023-07-19T10:38:14.611Z,23.55
2023-07-19T10:40:44.686Z,24.87
2023-07-19T10:43:11.439Z,27.39
2023-07-19T10:45:39.342Z,27.42
2023-07-19T10:48:06.504Z,27.73
2023-07-19T10:50:34.481Z,27.25
2023-07-19T10:53:01.149Z,24.45
2023-07-19T10:55:51.730Z,23.83
2023-07-19T10:58:15.925Z,23.35
2023-07-19T11:00:44.613Z,24.50
2023-07-19T11:03:15.139Z,24.53
2023-07-19T11:05:46.810Z,23.02
2023-07-19T11:08:20.063Z,23.28
2023-07-19T11:10:46.779Z,23.37
2023-07-19T11:13:14.333Z,23.13
2023-07-19T11:15:42.563Z,23.27
2023-07-19T11:18:09.275Z,23.80
2023-07-19T11:20:38.063Z,23.00
2023-07-19T11:23:09.157Z,24.84
2023-07-19T11:25:36.861Z,23.60
2023-07-19T11:28:03.733Z,23.95
2023-07-19T11:30:37.717Z,23.30
2023-07-19T11:33:05.196Z,23.22
2023-07-19T11:35:32.392Z,23.19
2023-07-19T11:37:59.484Z,24.65
2023-07-19T11:40:27.888Z,25.44
2023-07-19T11:42:56.649Z,23.54
2023-07-19T11:45:26.313Z,23.93
2023-07-19T11:47:58.724Z,23.33
2023-07-19T11:50:26.225Z,23.70
2023-07-19T11:52:57.119Z,23.30
2023-07-19T11:55:25.952Z,23.73
2023-07-19T11:57:55.471Z,23.35
2023-07-19T12:00:24.075Z,23.63
2023-07-19T12:02:53.350Z,24.04
2023-07-19T12:05:21.936Z,24.87
2023-07-19T12:07:53.058Z,24.10
2023-07-19T12:10:20.960Z,24.22
2023-07-19T12:12:49.728Z,24.02
2023-07-19T12:15:18.838Z,24.51
2023-07-19T12:17:46.168Z,23.39
2023-07-19T12:20:13.168Z,23.43
2023-07-19T12:22:42.170Z,23.33
2023-07-19T12:25:09.941Z,23.66
2023-07-19T12:27:36.769Z,23.32
2023-07-19T12:30:04.897Z,23.59
2023-07-19T12:32:34.245Z,23.53
2023-07-19T12:35:02.276Z,23.34
2023-07-19T12:37:29.133Z,25.42
2023-07-19T12:39:55.914Z,24.31
2023-07-19T12:42:22.775Z,25.33
2023-07-19T12:44:49.536Z,24.88
2023-07-19T12:47:16.997Z,24.87
2023-07-19T12:49:45.568Z,23.89
2023-07-19T12:52:13.191Z,24.81
2023-07-19T12:54:40.498Z,26.33
2023-07-19T12:57:08.048Z,26.22
2023-07-19T12:59:36.430Z,26.38
2023-07-19T13:02:05.145Z,26.75
2023-07-19T13:04:33.362Z,26.66
2023-07-19T13:07:04.580Z,26.85
2023-07-19T13:09:31.688Z,26.58
2023-07-19T13:11:59.001Z,26.72
2023-07-19T13:14:25.924Z,26.62
2023-07-19T13:17:05.602Z,26.65
2023-07-19T13:19:37.727Z,26.75
2023-07-19T13:22:06.430Z,26.73
2023-07-19T13:24:33.458Z,27.03
2023-07-19T13:27:00.806Z,26.45
2023-07-19T13:29:27.431Z,25.99
2023-07-19T13:31:55.317Z,25.84
2023-07-19T13:34:21.929Z,25.81
2023-07-19T13:39:19.410Z,26.27
2023-07-19T13:41:46.086Z,26.10
2023-07-19T13:44:12.858Z,25.67
2023-07-19T13:46:39.541Z,25.30
2023-07-19T13:49:07.594Z,25.49
2023-07-19T13:51:34.225Z,25.42
2023-07-19T13:54:01.554Z,24.83
2023-07-19T13:56:29.566Z,26.03
2023-07-19T13:58:56.241Z,26.16
2023-07-19T14:01:23.057Z,26.17
2023-07-19T14:03:50.541Z,26.14
2023-07-19T14:06:17.333Z,26.07
2023-07-19T14:08:44.065Z,26.20
2023-07-19T14:11:10.799Z,25.59
2023-07-19T14:13:39.361Z,25.52
2023-07-19T14:16:06.316Z,25.33
2023-07-19T14:18:33.025Z,25.78
2023-07-19T14:20:59.816Z,24.96
2023-07-19T14:23:26.639Z,24.85
2023-07-19T14:25:53.295Z,25.13
2023-07-19T14:28:20.171Z,24.86
2023-07-19T14:30:48.202Z,24.99
2023-07-19T14:33:15.162Z,24.95
2023-07-19T14:35:41.889Z,24.89
2023-07-19T14:38:08.773Z,24.88
2023-07-19T14:40:36.317Z,24.81
2023-07-19T14:43:03.005Z,24.82
2023-07-19T14:45:30.004Z,24.90
2023-07-19T14:47:58.046Z,25.45
2023-07-19T14:50:24.913Z,25.98
2023-07-19T14:52:51.786Z,26.26
2023-07-19T14:55:18.644Z,26.11
2023-07-19T14:57:45.563Z,26.38
2023-07-19T15:00:14.407Z,25.45
2023-07-19T15:02:42.105Z,25.26
2023-07-19T15:05:11.159Z,25.09
2023-07-19T15:07:38.145Z,25.06
2023-07-19T15:10:06.032Z,25.31
2023-07-19T15:12:32.748Z,25.16
2023-07-19T15:14:59.376Z,25.20
2023-07-19T15:17:26.539Z,25.06
2023-07-19T15:19:53.593Z,25.10
2023-07-19T15:22:22.016Z,25.76
2023-07-19T15:24:48.801Z,25.36
2023-07-19T15:27:15.610Z,25.28
2023-07-19T15:29:42.297Z,25.21
2023-07-19T15:32:09.427Z,25.17
2023-07-19T15:34:36.029Z,25.45
2023-07-19T15:37:02.989Z,25.41
2023-07-19T15:39:33.977Z,25.44
2023-07-19T15:42:00.854Z,25.32
2023-07-19T15:44:35.843Z,25.21
2023-07-19T15:47:03.906Z,25.32
2023-07-19T15:49:30.925Z,25.32
2023-07-19T15:51:58.365Z,25.24
2023-07-19T15:54:25.089Z,25.11
2023-07-19T15:56:53.145Z,25.18
2023-07-19T15:59:20.218Z,25.21
2023-07-19T16:01:46.964Z,25.20
2023-07-19T16:04:14.095Z,25.24
2023-07-19T16:06:40.773Z,25.24
2023-07-19T16:09:07.409Z,25.33
2023-07-19T16:11:34.029Z,25.65
2023-07-19T16:14:02.035Z,25.29
2023-07-19T16:16:28.848Z,25.25
2023-07-19T16:18:55.474Z,25.14
2023-07-19T16:21:22.334Z,25.22
2023-07-19T16:23:49.051Z,25.24
2023-07-19T16:26:15.750Z,25.15
2023-07-19T16:28:42.678Z,25.25
2023-07-19T16:31:14.791Z,25.35
2023-07-19T16:33:41.432Z,25.43
2023-07-19T16:36:08.177Z,25.33
2023-07-19T16:38:34.812Z,25.36
2023-07-19T16:41:01.557Z,25.21
2023-07-19T16:43:28.275Z,25.29
2023-07-19T16:45:54.952Z,25.25
2023-07-19T16:48:23.073Z,25.49
2023-07-19T16:50:49.726Z,25.35
2023-07-19T16:53:18.237Z,25.36
2023-07-19T16:55:46.607Z,25.25
2023-07-19T16:58:13.381Z,25.35
2023-07-19T17:00:40.393Z,25.36
2023-07-19T17:03:07.304Z,25.35
2023-07-19T17:05:35.844Z,25.25
2023-07-19T17:08:07.438Z,25.40
2023-07-19T17:10:38.515Z,25.31
2023-07-19T17:13:06.409Z,25.30
2023-07-19T17:15:36.071Z,25.40
2023-07-19T17:18:03.679Z,25.46
2023-07-19T17:20:32.370Z,25.28
2023-07-19T17:23:00.468Z,25.15
2023-07-19T17:25:27.101Z,25.20
2023-07-19T17:27:53.707Z,25.24
2023-07-19T17:30:20.503Z,25.34
2023-07-19T17:32:49.040Z,25.23
2023-07-19T17:35:17.104Z,25.51
2023-07-19T17:37:43.744Z,25.24
2023-07-19T17:40:13.116Z,25.23
2023-07-19T17:42:40.472Z,25.34
2023-07-19T17:45:08.967Z,25.41
2023-07-19T17:47:35.644Z,25.46
2023-07-19T17:50:02.466Z,25.41
2023-07-19T17:52:30.720Z,25.43
2023-07-19T17:54:58.047Z,25.44
2023-07-19T17:57:26.123Z,25.46
2023-07-19T17:59:52.855Z,25.39
2023-07-19T18:02:20.805Z,25.52
2023-07-19T18:04:47.966Z,25.04
2023-07-19T18:07:14.953Z,25.36
2023-07-19T18:09:42.263Z,25.40
2023-07-19T18:12:10.398Z,25.37
2023-07-19T18:14:38.577Z,24.21
2023-07-19T18:17:06.039Z,25.07
2023-07-19T18:19:33.433Z,25.34
2023-07-19T18:22:03.641Z,25.32
2023-07-19T18:24:32.684Z,25.36
2023-07-19T18:27:00.116Z,25.34
2023-07-19T18:29:27.206Z,25.40
2023-07-19T18:31:55.478Z,25.26
2023-07-19T18:34:22.248Z,25.39
2023-07-19T18:36:50.047Z,25.34
2023-07-19T18:39:17.022Z,25.34
2023-07-19T18:41:43.910Z,25.34
2023-07-19T18:44:10.753Z,25.36
2023-07-19T18:46:37.465Z,25.33
2023-07-19T18:49:05.606Z,25.32
2023-07-19T18:51:32.348Z,25.29
2023-07-19T18:53:59.026Z,25.29
2023-07-19T18:56:28.575Z,25.34
2023-07-19T18:58:55.916Z,25.28
2023-07-19T19:01:22.939Z,25.28
2023-07-19T19:03:50.304Z,25.23
2023-07-19T19:06:18.401Z,25.20
2023-07-19T19:08:45.040Z,25.19
2023-07-19T19:11:11.920Z,25.17
2023-07-19T19:13:38.548Z,24.96
2023-07-19T19:16:05.713Z,25.08
2023-07-19T19:18:32.496Z,25.11
2023-07-19T19:20:59.714Z,25.10
2023-07-19T19:23:29.459Z,25.10
2023-07-19T19:25:56.377Z,25.09
2023-07-19T19:28:23.382Z,25.09
2023-07-19T19:30:50.269Z,25.07
2023-07-19T19:33:17.066Z,25.06
2023-07-19T19:35:44.195Z,24.93
2023-07-19T19:38:10.886Z,24.71
2023-07-19T19:40:38.884Z,24.55
2023-07-19T19:43:05.528Z,24.90
2023-07-19T19:45:32.183Z,24.45
2023-07-19T19:47:58.871Z,24.88
2023-07-19T19:50:28.596Z,24.70
2023-07-19T19:53:03.802Z,24.56
2023-07-19T19:58:07.493Z,24.29
2023-07-19T20:00:35.757Z,24.52
2023-07-19T20:08:02.455Z,24.21
2023-07-19T20:10:29.668Z,24.72
2023-07-19T20:12:56.465Z,24.33
2023-07-19T20:15:24.538Z,24.00
2023-07-19T20:17:51.189Z,24.17
2023-07-19T20:22:49.954Z,24.16
2023-07-19T20:25:33.838Z,23.81
2023-07-19T20:28:04.101Z,24.29
2023-07-19T20:30:43.997Z,24.32
2023-07-19T20:33:11.734Z,24.11
2023-07-19T20:43:09.079Z,24.51
2023-07-19T20:45:37.614Z,24.59
2023-07-19T20:48:05.272Z,24.44
2023-07-19T20:50:31.947Z,23.73
2023-07-19T20:52:58.609Z,24.04
2023-07-19T20:55:25.259Z,23.43
2023-07-19T20:57:51.928Z,22.72
2023-07-19T21:00:20.788Z,24.24
2023-07-19T21:02:48.952Z,24.10
2023-07-19T21:05:15.830Z,23.97
2023-07-19T21:07:42.490Z,24.44
2023-07-19T21:10:09.830Z,24.34
2023-07-19T21:12:36.489Z,24.44
2023-07-19T21:15:04.551Z,23.95
2023-07-19T21:17:31.258Z,24.44
2023-07-19T21:19:59.354Z,24.50
2023-07-19T21:22:26.057Z,24.50
2023-07-19T21:27:23.076Z,24.51
2023-07-19T21:29:49.680Z,24.52
2023-07-19T21:32:16.423Z,24.53
2023-07-19T21:34:43.153Z,24.51
2023-07-19T21:37:11.178Z,24.51
2023-07-19T21:39:37.799Z,24.51
2023-07-19T21:42:06.958Z,24.47
2023-07-19T21:44:33.453Z,24.37
2023-07-19T21:47:00.092Z,24.26
2023-07-19T21:49:26.737Z,24.42
2023-07-19T21:51:53.460Z,24.43
2023-07-19T21:54:21.640Z,24.50
2023-07-19T21:56:48.253Z,24.49
2023-07-19T21:59:14.982Z,24.47
2023-07-19T22:01:41.703Z,24.44
2023-07-19T22:04:08.410Z,24.49
2023-07-19T22:06:35.108Z,24.49
2023-07-19T22:09:01.971Z,24.45
2023-07-19T22:11:35.869Z,24.46
2023-07-19T22:14:02.581Z,24.39
2023-07-19T22:16:29.192Z,24.40
2023-07-19T22:18:55.886Z,24.40
2023-07-19T22:21:22.950Z,24.44
2023-07-19T22:23:49.896Z,24.36
2023-07-19T22:26:16.682Z,24.34
2023-07-19T22:28:44.782Z,24.44
2023-07-19T22:31:11.572Z,24.39
2023-07-19T22:33:38.489Z,24.40
2023-07-19T22:36:06.555Z,24.29
2023-07-19T22:38:33.245Z,23.80
2023-07-19T22:40:59.867Z,24.23
2023-07-19T22:43:26.753Z,24.31
2023-07-19T22:45:54.705Z,23.82
2023-07-19T22:48:21.349Z,22.82
2023-07-19T22:50:48.064Z,23.89
2023-07-19T22:53:14.762Z,23.91
2023-07-19T22:55:41.421Z,23.99
2023-07-19T22:58:08.073Z,24.17
2023-07-19T23:00:34.763Z,24.24
2023-07-19T23:03:02.865Z,24.18
2023-07-19T23:05:29.696Z,24.18
2023-07-19T23:07:56.616Z,24.21
2023-07-19T23:10:24.327Z,22.85
2023-07-19T23:12:54.004Z,23.73
2023-07-19T23:15:20.650Z,24.06
2023-07-19T23:17:47.295Z,24.04
2023-07-19T23:20:15.356Z,24.15
2023-07-19T23:22:42.068Z,24.15
2023-07-19T23:25:11.202Z,24.19
2023-07-19T23:27:39.163Z,24.05
2023-07-19T23:30:07.125Z,24.16
2023-07-19T23:32:33.943Z,24.20
2023-07-19T23:35:00.994Z,24.07
2023-07-19T23:37:29.406Z,24.06
2023-07-19T23:39:56.012Z,24.07
2023-07-19T23:42:22.633Z,24.03
2023-07-19T23:44:53.113Z,24.15
2023-07-19T23:47:20.412Z,24.06
2023-07-19T23:49:48.243Z,24.02
2023-07-19T23:52:17.884Z,24.02
2023-07-19T23:54:45.853Z,24.09
2023-07-19T23:57:12.516Z,21.91
2023-07-19T23:59:39.344Z,23.59
